createdAt,value
2018-05-29T00:00:02.478Z,19.26
2018-05-29T00:01:24.287Z,19.28
2018-05-29T00:02:46.337Z,19.21
2018-05-29T00:04:08.395Z,19.21
2018-05-29T00:05:30.447Z,19.16
2018-05-29T00:06:52.491Z,19.04
2018-05-29T00:08:14.532Z,19.04
2018-05-29T00:09:36.574Z,18.95
2018-05-29T00:10:58.359Z,18.99
2018-05-29T00:12:20.398Z,18.9
2018-05-29T00:13:42.426Z,18.87
2018-05-29T00:15:04.211Z,18.8
2018-05-29T00:16:26.251Z,18.81
2018-05-29T00:17:48.298Z,18.75
2018-05-29T00:19:10.092Z,18.85
2018-05-29T00:20:32.138Z,18.75
2018-05-29T00:21:53.906Z,18.82
2018-05-29T00:23:15.940Z,18.8
2018-05-29T00:24:37.992Z,18.82
2018-05-29T00:26:00.030Z,18.75
2018-05-29T00:27:21.603Z,18.85
2018-05-29T00:28:43.639Z,18.92
2018-05-29T00:30:05.684Z,18.91
2018-05-29T00:31:27.731Z,18.9
2018-05-29T00:32:49.524Z,18.84
2018-05-29T00:34:11.301Z,18.85
2018-05-29T00:35:33.353Z,18.88
2018-05-29T00:36:55.424Z,18.9
2018-05-29T00:38:17.499Z,18.81
2018-05-29T00:39:39.282Z,18.82
2018-05-29T00:41:01.061Z,18.84
2018-05-29T00:42:22.586Z,18.76
2018-05-29T00:43:44.623Z,18.78
2018-05-29T00:45:06.675Z,18.73
2018-05-29T00:46:28.448Z,18.67
2018-05-29T00:47:50.225Z,18.65
2018-05-29T00:49:11.992Z,18.78
2018-05-29T00:50:34.041Z,18.69
2018-05-29T00:51:55.560Z,18.6
2018-05-29T00:53:17.339Z,18.55
2018-05-29T00:54:39.373Z,18.6
2018-05-29T00:56:01.431Z,18.51
2018-05-29T00:57:23.475Z,18.5
2018-05-29T00:58:45.264Z,18.51
2018-05-29T01:00:06.801Z,18.45
2018-05-29T01:01:28.849Z,18.52
2018-05-29T01:02:50.985Z,18.5
2018-05-29T01:04:13.027Z,18.72
2018-05-29T01:05:35.124Z,18.67
2018-05-29T01:06:56.927Z,18.72
2018-05-29T01:08:18.977Z,18.81
2018-05-29T01:09:40.758Z,19.08
2018-05-29T01:11:02.288Z,19.08
2018-05-29T01:12:24.331Z,19.07
2018-05-29T01:13:46.184Z,19.23
2018-05-29T01:15:07.975Z,19.16
2018-05-29T01:16:29.757Z,19.29
2018-05-29T01:17:51.851Z,19.41
2018-05-29T01:19:13.909Z,19.44
2018-05-29T01:20:35.958Z,19.21
2018-05-29T01:21:58.003Z,19.18
2018-05-29T01:23:20.048Z,18.98
2018-05-29T01:24:41.846Z,18.76
2018-05-29T01:26:03.639Z,18.66
2018-05-29T01:27:25.215Z,18.51
2018-05-29T01:28:47.260Z,18.42
2018-05-29T01:30:09.092Z,18.42
2018-05-29T01:31:31.125Z,18.3
2018-05-29T01:32:53.176Z,18.37
2018-05-29T01:34:14.941Z,18.29
2018-05-29T01:35:37.052Z,18.21
2018-05-29T01:36:58.832Z,18.29
2018-05-29T01:38:20.877Z,18.27
2018-05-29T01:39:42.917Z,18.45
2018-05-29T01:41:04.957Z,18.45
2018-05-29T01:42:26.752Z,18.27
2018-05-29T01:43:48.265Z,18.37
2018-05-29T01:45:10.039Z,18.39
2018-05-29T01:46:32.071Z,18.45
2018-05-29T01:47:53.587Z,18.36
2018-05-29T01:49:15.366Z,18.25
2018-05-29T01:50:37.413Z,18.25
2018-05-29T01:51:59.457Z,18.27
2018-05-29T01:53:21.243Z,18.25
2018-05-29T01:54:43.038Z,18.14
2018-05-29T01:56:05.079Z,18.1
2018-05-29T01:57:26.880Z,18.07
2018-05-29T01:58:48.921Z,18.11
2018-05-29T02:00:10.453Z,18.17
2018-05-29T02:01:32.218Z,18.25
2018-05-29T02:02:54.271Z,18.14
2018-05-29T02:04:16.088Z,18.05
2018-05-29T02:05:38.363Z,18.05
2018-05-29T02:07:00.411Z,17.96
2018-05-29T02:08:22.472Z,17.95
2018-05-29T02:09:43.991Z,17.9
2018-05-29T02:11:05.513Z,17.86
2018-05-29T02:12:27.550Z,17.81
2018-05-29T02:13:49.590Z,17.78
2018-05-29T02:15:11.648Z,17.82
2018-05-29T02:16:33.420Z,17.81
2018-05-29T02:17:55.197Z,17.75
2018-05-29T02:19:16.977Z,17.79
2018-05-29T02:20:38.813Z,17.82
2018-05-29T02:22:00.585Z,17.89
2018-05-29T02:23:22.648Z,17.95
2018-05-29T02:24:44.672Z,18.05
2018-05-29T02:26:06.727Z,18.05
2018-05-29T02:27:28.754Z,18.2
2018-05-29T02:28:50.277Z,18.17
2018-05-29T02:30:12.066Z,18.17
2018-05-29T02:31:33.856Z,18.15
2018-05-29T02:32:55.626Z,18.11
2018-05-29T02:34:17.686Z,18.03
2018-05-29T02:35:39.747Z,17.92
2018-05-29T02:37:01.805Z,17.9
2018-05-29T02:38:23.611Z,17.82
2018-05-29T02:39:45.664Z,17.82
2018-05-29T02:41:07.455Z,17.75
2018-05-29T02:42:29.496Z,17.74
2018-05-29T02:43:51.525Z,17.68
2018-05-29T02:45:13.566Z,17.62
2018-05-29T02:46:35.613Z,17.64
2018-05-29T02:47:57.654Z,17.56
2018-05-29T02:49:19.710Z,17.58
2018-05-29T02:50:41.759Z,17.49
2018-05-29T02:52:03.817Z,17.55
2018-05-29T02:53:25.863Z,17.52
2018-05-29T02:54:47.656Z,17.51
2018-05-29T02:56:09.168Z,17.51
2018-05-29T02:57:31.220Z,17.49
2018-05-29T02:58:53.331Z,17.46
2018-05-29T03:00:15.107Z,17.44
2018-05-29T03:01:37.135Z,17.44
2018-05-29T03:02:58.917Z,17.49
2018-05-29T03:04:20.961Z,17.38
2018-05-29T03:05:42.746Z,17.33
2018-05-29T03:07:04.531Z,17.28
2018-05-29T03:08:26.549Z,17.31
2018-05-29T03:09:48.066Z,17.36
2018-05-29T03:11:09.847Z,17.31
2018-05-29T03:12:31.893Z,17.28
2018-05-29T03:13:53.685Z,17.33
2018-05-29T03:15:15.196Z,17.28
2018-05-29T03:16:36.984Z,17.26
2018-05-29T03:17:58.506Z,17.26
2018-05-29T03:19:20.553Z,17.25
2018-05-29T03:20:42.601Z,17.21
2018-05-29T03:22:04.121Z,17.21
2018-05-29T03:23:25.892Z,17.21
2018-05-29T03:24:47.933Z,17.22
2018-05-29T03:26:09.991Z,17.21
2018-05-29T03:27:32.027Z,17.19
2018-05-29T03:28:54.079Z,17.16
2018-05-29T03:30:15.859Z,17.21
2018-05-29T03:31:37.910Z,17.19
2018-05-29T03:32:59.963Z,17.25
2018-05-29T03:34:22.017Z,17.34
2018-05-29T03:35:44.172Z,17.31
2018-05-29T03:37:06.217Z,17.46
2018-05-29T03:38:28.280Z,17.51
2018-05-29T03:39:50.060Z,17.54
2018-05-29T03:41:11.849Z,17.51
2018-05-29T03:42:33.904Z,17.7
2018-05-29T03:43:55.939Z,17.7
2018-05-29T03:45:17.727Z,17.75
2018-05-29T03:46:39.754Z,17.81
2018-05-29T03:48:01.804Z,17.89
2018-05-29T03:49:23.608Z,17.9
2018-05-29T03:50:45.377Z,17.87
2018-05-29T03:52:07.174Z,17.97
2018-05-29T03:53:29.223Z,17.89
2018-05-29T03:54:51.272Z,17.96
2018-05-29T03:56:12.788Z,18.08
2018-05-29T03:57:34.843Z,18.08
2018-05-29T03:58:56.896Z,18.08
2018-05-29T04:00:18.739Z,18.12
2018-05-29T04:01:40.780Z,18.18
2018-05-29T04:03:02.831Z,18.27
2018-05-29T04:04:24.875Z,18.32
2018-05-29T04:05:46.987Z,18.48
2018-05-29T04:07:08.759Z,18.58
2018-05-29T04:08:30.797Z,18.72
2018-05-29T04:09:52.857Z,18.81
2018-05-29T04:11:14.718Z,18.95
2018-05-29T04:12:36.749Z,19.13
2018-05-29T04:13:58.779Z,19.19
2018-05-29T04:15:20.836Z,19.33
2018-05-29T04:16:42.357Z,19.54
2018-05-29T04:18:04.141Z,19.61
2018-05-29T04:19:26.190Z,19.83
2018-05-29T04:20:48.229Z,20.01
2018-05-29T04:22:10.277Z,20.13
2018-05-29T04:23:32.311Z,20.33
2018-05-29T04:24:54.356Z,20.41
2018-05-29T04:26:15.613Z,20.58
2018-05-29T04:27:37.407Z,20.89
2018-05-29T04:28:59.212Z,20.99
2018-05-29T04:30:20.997Z,21.22
2018-05-29T04:31:42.523Z,21.34
2018-05-29T04:33:04.582Z,21.64
2018-05-29T04:34:26.382Z,21.61
2018-05-29T04:35:48.433Z,21.65
2018-05-29T04:37:10.483Z,21.92
2018-05-29T04:38:32.258Z,21.94
2018-05-29T04:39:53.767Z,22
2018-05-29T04:41:15.860Z,22.2
2018-05-29T04:42:37.920Z,22.25
2018-05-29T04:43:59.703Z,22.39
2018-05-29T04:45:21.497Z,22.52
2018-05-29T04:46:43.532Z,22.76
2018-05-29T04:48:05.574Z,22.79
2018-05-29T04:49:27.630Z,22.91
2018-05-29T04:50:49.492Z,22.88
2018-05-29T04:52:11.540Z,23.05
2018-05-29T04:53:33.596Z,23.38
2018-05-29T04:54:55.377Z,24.13
2018-05-29T04:56:17.169Z,25.09
2018-05-29T04:57:39.227Z,25.99
2018-05-29T04:59:01.275Z,26.88
2018-05-29T05:00:23.335Z,27.39
2018-05-29T05:01:45.114Z,27.65
2018-05-29T05:03:07.157Z,28.22
2018-05-29T05:04:29.224Z,28.66
2018-05-29T05:05:51.278Z,29.21
2018-05-29T05:07:13.311Z,28.4
2018-05-29T05:08:35.343Z,28.31
2018-05-29T05:09:56.877Z,28.76
2018-05-29T05:11:18.670Z,29.33
2018-05-29T05:12:40.468Z,29.61
2018-05-29T05:14:02.262Z,29.71
2018-05-29T05:15:24.048Z,29.71
2018-05-29T05:16:46.116Z,29.74
2018-05-29T05:18:08.158Z,29.19
2018-05-29T05:19:30.209Z,29.14
2018-05-29T05:20:52.271Z,29.68
2018-05-29T05:22:14.335Z,30.19
2018-05-29T05:23:36.473Z,30.61
2018-05-29T05:24:58.307Z,30.72
2018-05-29T05:26:20.372Z,30.99
2018-05-29T05:27:42.162Z,31.16
2018-05-29T05:29:04.226Z,30.73
2018-05-29T05:30:26.302Z,30.72
2018-05-29T05:31:48.349Z,30.29
2018-05-29T05:33:10.161Z,30.92
2018-05-29T05:34:32.226Z,31.85
2018-05-29T05:35:54.018Z,31.66
2018-05-29T05:37:16.068Z,31.34
2018-05-29T05:38:38.120Z,31.91
2018-05-29T05:40:00.178Z,32.29
2018-05-29T05:41:22.247Z,32.77
2018-05-29T05:42:44.304Z,33.18
2018-05-29T05:44:06.385Z,33.44
2018-05-29T05:45:28.447Z,33.78
2018-05-29T05:46:49.976Z,32.93
2018-05-29T05:48:11.519Z,33.35
2018-05-29T05:49:33.298Z,33.84
2018-05-29T05:50:55.114Z,34.35
2018-05-29T05:52:17.185Z,34.32
2018-05-29T05:53:38.969Z,34.89
2018-05-29T05:55:00.761Z,35.48
2018-05-29T05:56:22.543Z,34.92
2018-05-29T05:57:44.062Z,34.37
2018-05-29T05:59:05.662Z,35.16
2018-05-29T06:00:27.733Z,36.27
2018-05-29T06:01:49.785Z,36.85
2018-05-29T06:03:11.599Z,36.29
2018-05-29T06:04:33.662Z,35.82
2018-05-29T06:05:55.487Z,36.39
2018-05-29T06:07:17.784Z,36.9
2018-05-29T06:08:39.343Z,36.76
2018-05-29T06:10:01.429Z,36.59
2018-05-29T06:11:23.513Z,36.76
2018-05-29T06:12:45.317Z,36.98
2018-05-29T06:14:07.365Z,36.5
2018-05-29T06:15:29.438Z,36.99
2018-05-29T06:16:51.506Z,37.27
2018-05-29T06:18:13.322Z,36.91
2018-05-29T06:19:35.380Z,36.91
2018-05-29T06:20:57.436Z,36.94
2018-05-29T06:22:19.477Z,37.25
2018-05-29T06:23:41.553Z,37.12
2018-05-29T06:25:03.616Z,37.62
2018-05-29T06:26:25.722Z,37.09
2018-05-29T06:27:47.783Z,37.5
2018-05-29T06:29:09.840Z,38.04
2018-05-29T06:30:31.669Z,38.41
2018-05-29T06:31:53.736Z,38.54
2018-05-29T06:33:15.519Z,38.52
2018-05-29T06:34:37.586Z,38.37
2018-05-29T06:35:59.641Z,37.76
2018-05-29T06:37:20.928Z,37.69
2018-05-29T06:38:43.068Z,37.37
2018-05-29T06:40:05.193Z,37.59
2018-05-29T06:41:26.981Z,37.69
2018-05-29T06:42:48.776Z,37.84
2018-05-29T06:44:10.830Z,38.32
2018-05-29T06:45:32.903Z,38.37
2018-05-29T06:46:54.980Z,38.01
2018-05-29T06:48:16.770Z,37.97
2018-05-29T06:49:38.830Z,37.82
2018-05-29T06:51:00.426Z,37.37
2018-05-29T06:52:22.496Z,37.94
2018-05-29T06:53:44.637Z,38.68
2018-05-29T06:55:06.692Z,39.06
2018-05-29T06:56:28.767Z,38.83
2018-05-29T06:57:50.945Z,38.35
2018-05-29T06:59:13.006Z,37.75
2018-05-29T07:00:35.087Z,37.82
2018-05-29T07:01:57.177Z,37.36
2018-05-29T07:03:18.987Z,38.16
2018-05-29T07:04:41.058Z,38.95
2018-05-29T07:06:03.118Z,39.28
2018-05-29T07:07:25.237Z,39.86
2018-05-29T07:08:46.759Z,39.86
2018-05-29T07:10:08.570Z,39.23
2018-05-29T07:11:30.641Z,39.86
2018-05-29T07:12:52.725Z,39.69
2018-05-29T07:14:14.784Z,38.98
2018-05-29T07:15:36.851Z,38.81
2018-05-29T07:16:58.909Z,38.41
2018-05-29T07:18:20.984Z,38.71
2018-05-29T07:19:42.781Z,38.35
2018-05-29T07:21:04.981Z,37.69
2018-05-29T07:22:26.794Z,36.93
2018-05-29T07:23:48.331Z,36.85
2018-05-29T07:25:10.411Z,36.91
2018-05-29T07:26:32.485Z,37.88
2018-05-29T07:27:54.298Z,38.04
2018-05-29T07:29:16.129Z,38.54
2018-05-29T07:30:37.941Z,39.07
2018-05-29T07:32:00.004Z,39.23
2018-05-29T07:33:22.074Z,39.55
2018-05-29T07:34:44.140Z,40.23
2018-05-29T07:36:05.664Z,40.72
2018-05-29T07:37:27.465Z,39.92
2018-05-29T07:38:49.254Z,38.68
2018-05-29T07:40:11.206Z,38.84
2018-05-29T07:41:33.278Z,39.21
2018-05-29T07:42:55.081Z,39.59
2018-05-29T07:44:17.154Z,39.5
2018-05-29T07:45:39.209Z,38.22
2018-05-29T07:47:01.275Z,38.72
2018-05-29T07:48:23.362Z,39.23
2018-05-29T07:49:44.933Z,40.07
2018-05-29T07:51:06.738Z,40.46
2018-05-29T07:52:28.821Z,39.62
2018-05-29T07:53:50.625Z,39.67
2018-05-29T07:55:12.701Z,39.23
2018-05-29T07:56:34.513Z,38.2
2018-05-29T07:57:56.336Z,38.28
2018-05-29T07:59:18.130Z,37.85
2018-05-29T08:00:39.937Z,38.54
2018-05-29T08:02:01.733Z,39.04
2018-05-29T08:03:23.544Z,38.98
2018-05-29T08:04:45.356Z,38.91
2018-05-29T08:06:07.176Z,38.31
2018-05-29T08:07:29.006Z,37.7
2018-05-29T08:08:50.808Z,36.83
2018-05-29T08:10:12.889Z,36.41
2018-05-29T08:11:34.942Z,35.58
2018-05-29T08:12:56.998Z,34.73
2018-05-29T08:14:19.052Z,33.29
2018-05-29T08:15:41.121Z,32.72
2018-05-29T08:17:02.666Z,32.28
2018-05-29T08:18:24.451Z,31.88
2018-05-29T08:19:46.297Z,31.36
2018-05-29T08:21:08.358Z,31.35
2018-05-29T08:22:29.886Z,31.02
2018-05-29T08:23:51.950Z,30.89
2018-05-29T08:25:14.022Z,30.65
2018-05-29T08:26:36.085Z,30.46
2018-05-29T08:27:58.137Z,30.32
2018-05-29T08:29:19.416Z,30.54
2018-05-29T08:30:41.223Z,30.45
2018-05-29T08:32:03.010Z,30.24
2018-05-29T08:33:25.076Z,30.19
2018-05-29T08:34:47.155Z,30.23
2018-05-29T08:36:09.209Z,30.38
2018-05-29T08:37:31.011Z,30.55
2018-05-29T08:38:53.092Z,30.67
2018-05-29T08:40:15.157Z,30.69
2018-05-29T08:41:36.970Z,30.43
2018-05-29T08:42:58.781Z,30.49
2018-05-29T08:44:20.571Z,30.49
2018-05-29T08:45:42.358Z,30
2018-05-29T08:47:04.136Z,29.79
2018-05-29T08:48:26.210Z,29.8
2018-05-29T08:49:48.258Z,29.92
2018-05-29T08:51:10.329Z,30.16
2018-05-29T08:52:32.386Z,30.26
2018-05-29T08:53:54.452Z,30.13
2018-05-29T08:55:16.511Z,30.26
2018-05-29T08:56:38.029Z,30.27
2018-05-29T08:57:59.858Z,30.37
2018-05-29T08:59:21.910Z,30.42
2018-05-29T09:00:43.978Z,30.29
2018-05-29T09:02:05.788Z,30.39
2018-05-29T09:03:27.598Z,30.6
2018-05-29T09:04:49.652Z,30.76
2018-05-29T09:06:11.724Z,30.73
2018-05-29T09:07:33.511Z,30.8
2018-05-29T09:08:55.586Z,30.43
2018-05-29T09:10:17.632Z,30.39
2018-05-29T09:11:39.762Z,30.46
2018-05-29T09:13:01.640Z,30.7
2018-05-29T09:14:23.726Z,30.76
2018-05-29T09:15:45.530Z,30.89
2018-05-29T09:17:07.587Z,30.91
2018-05-29T09:18:29.624Z,31.01
2018-05-29T09:19:51.505Z,31.07
2018-05-29T09:21:13.640Z,31.06
2018-05-29T09:22:35.705Z,31.21
2018-05-29T09:23:57.516Z,31.2
2018-05-29T09:25:19.064Z,30.95
2018-05-29T09:26:41.149Z,30.83
2018-05-29T09:28:02.949Z,31.13
2018-05-29T09:29:24.757Z,30.99
2018-05-29T09:30:46.589Z,31.28
2018-05-29T09:32:08.752Z,31.25
2018-05-29T09:33:30.303Z,31.14
2018-05-29T09:34:52.368Z,31.1
2018-05-29T09:36:14.420Z,31.28
2018-05-29T09:37:36.589Z,31.19
2018-05-29T09:38:58.644Z,31.16
2018-05-29T09:40:20.224Z,31.35
2018-05-29T09:41:42.464Z,31.43
2018-05-29T09:43:03.748Z,31.31
2018-05-29T09:44:25.812Z,31.26
2018-05-29T09:45:47.967Z,31.35
2018-05-29T09:47:10.232Z,31.61
2018-05-29T09:48:32.426Z,31.61
2018-05-29T09:49:54.473Z,31.65
2018-05-29T09:51:16.548Z,31.63
2018-05-29T09:52:38.361Z,31.69
2018-05-29T09:54:00.492Z,31.73
2018-05-29T09:55:22.554Z,31.65
2018-05-29T09:56:44.348Z,31.86
2018-05-29T09:58:06.399Z,32.15
2018-05-29T09:59:28.183Z,32.23
2018-05-29T10:00:49.990Z,32.13
2018-05-29T10:02:12.057Z,32
2018-05-29T10:03:34.147Z,32.04
2018-05-29T10:04:56.271Z,32.11
2018-05-29T10:06:18.332Z,32.14
2018-05-29T10:07:40.124Z,32.33
2018-05-29T10:09:02.188Z,32.41
2018-05-29T10:10:23.990Z,32.29
2018-05-29T10:11:46.068Z,32.4
2018-05-29T10:13:08.136Z,32.55
2018-05-29T10:14:30.388Z,32.63
2018-05-29T10:15:51.911Z,32.52
2018-05-29T10:17:13.652Z,32.56
2018-05-29T10:18:35.705Z,32.4
2018-05-29T10:19:57.775Z,32.3
2018-05-29T10:21:19.840Z,32.28
2018-05-29T10:22:41.891Z,32.48
2018-05-29T10:24:03.959Z,32.45
2018-05-29T10:25:25.759Z,32.33
2018-05-29T10:26:47.818Z,32.38
2018-05-29T10:28:09.612Z,32.32
2018-05-29T10:29:31.656Z,32.18
2018-05-29T10:30:53.826Z,32.33
2018-05-29T10:32:15.377Z,32.22
2018-05-29T10:33:37.424Z,32.4
2018-05-29T10:34:59.474Z,32.59
2018-05-29T10:36:20.737Z,32.44
2018-05-29T10:37:42.537Z,32.56
2018-05-29T10:39:04.340Z,32.38
2018-05-29T10:40:26.139Z,32.21
2018-05-29T10:41:48.220Z,31.88
2018-05-29T10:43:10.010Z,31.84
2018-05-29T10:44:31.830Z,31.95
2018-05-29T10:45:53.675Z,32.07
2018-05-29T10:47:15.837Z,32.15
2018-05-29T10:48:37.908Z,32.35
2018-05-29T10:49:59.719Z,32.33
2018-05-29T10:51:21.549Z,32.41
2018-05-29T10:52:43.467Z,32.32
2018-05-29T10:54:05.516Z,32.59
2018-05-29T10:55:27.573Z,32.56
2018-05-29T10:56:49.661Z,32.35
2018-05-29T10:58:11.719Z,32.19
2018-05-29T10:59:33.527Z,31.93
2018-05-29T11:00:55.332Z,31.89
2018-05-29T11:02:17.148Z,31.92
2018-05-29T11:03:38.955Z,32.04
2018-05-29T11:05:01.031Z,32.07
2018-05-29T11:06:23.116Z,32.32
2018-05-29T11:07:45.188Z,32.45
2018-05-29T11:09:07.257Z,32.84
2018-05-29T11:10:29.319Z,33.01
2018-05-29T11:11:51.389Z,33.14
2018-05-29T11:13:13.456Z,33.29
2018-05-29T11:14:35.530Z,33.26
2018-05-29T11:15:57.580Z,33.21
2018-05-29T11:17:19.637Z,33.39
2018-05-29T11:18:41.438Z,33.72
2018-05-29T11:20:03.557Z,33.86
2018-05-29T11:21:25.749Z,33.91
2018-05-29T11:22:47.304Z,33.71
2018-05-29T11:24:09.104Z,33.79
2018-05-29T11:25:31.167Z,33.82
2018-05-29T11:26:53.237Z,33.61
2018-05-29T11:28:15.058Z,33.51
2018-05-29T11:29:36.603Z,33.41
2018-05-29T11:30:58.645Z,33.56
2018-05-29T11:32:20.482Z,33.35
2018-05-29T11:33:42.548Z,33.31
2018-05-29T11:35:04.600Z,33.15
2018-05-29T11:36:26.678Z,33.04
2018-05-29T11:37:48.234Z,32.97
2018-05-29T11:39:10.290Z,32.92
2018-05-29T11:40:32.376Z,32.66
2018-05-29T11:41:54.436Z,32.57
2018-05-29T11:43:16.523Z,32.65
2018-05-29T11:44:38.333Z,32.72
2018-05-29T11:46:00.393Z,33.04
2018-05-29T11:47:22.244Z,33.23
2018-05-29T11:48:44.439Z,33.47
2018-05-29T11:50:06.233Z,33.21
2018-05-29T11:51:28.333Z,33.18
2018-05-29T11:52:50.405Z,33.04
2018-05-29T11:54:12.468Z,33.11
2018-05-29T11:55:33.731Z,33.07
2018-05-29T11:56:55.542Z,32.97
2018-05-29T11:58:17.611Z,32.96
2018-05-29T11:59:39.688Z,32.85
2018-05-29T12:01:01.746Z,32.84
2018-05-29T12:02:23.821Z,32.85
2018-05-29T12:03:45.889Z,32.93
2018-05-29T12:05:07.945Z,32.84
2018-05-29T12:06:29.767Z,32.72
2018-05-29T12:07:51.041Z,32.66
2018-05-29T12:09:13.118Z,32.63
2018-05-29T12:10:35.194Z,32.66
2018-05-29T12:11:56.998Z,32.89
2018-05-29T12:13:19.057Z,33.21
2018-05-29T12:14:41.121Z,33.5
2018-05-29T12:16:03.183Z,33.59
2018-05-29T12:17:24.728Z,33.53
2018-05-29T12:18:46.774Z,33.39
2018-05-29T12:20:08.569Z,33.12
2018-05-29T12:21:30.360Z,33.11
2018-05-29T12:22:52.435Z,33.15
2018-05-29T12:24:14.237Z,33.16
2018-05-29T12:25:36.292Z,33.15
2018-05-29T12:26:58.348Z,33.09
2018-05-29T12:28:20.722Z,33
2018-05-29T12:29:42.905Z,32.78
2018-05-29T12:31:04.725Z,32.63
2018-05-29T12:32:26.809Z,32.57
2018-05-29T12:33:48.891Z,32.59
2018-05-29T12:35:10.953Z,32.74
2018-05-29T12:36:32.750Z,32.88
2018-05-29T12:37:54.545Z,32.93
2018-05-29T12:39:16.337Z,32.97
2018-05-29T12:40:38.151Z,32.99
2018-05-29T12:42:00.217Z,33.26
2018-05-29T12:43:22.056Z,33.84
2018-05-29T12:44:44.129Z,34.1
2018-05-29T12:46:06.238Z,34.39
2018-05-29T12:47:27.926Z,34.78
2018-05-29T12:48:49.992Z,34.81
2018-05-29T12:50:11.889Z,34.81
2018-05-29T12:51:33.714Z,34.5
2018-05-29T12:52:55.265Z,34.69
2018-05-29T12:54:16.556Z,34.82
2018-05-29T12:55:38.626Z,35.1
2018-05-29T12:57:00.693Z,35.31
2018-05-29T12:58:22.503Z,35.36
2018-05-29T12:59:44.068Z,35.18
2018-05-29T13:01:05.351Z,34.62
2018-05-29T13:02:26.937Z,34.15
2018-05-29T13:03:48.744Z,34.17
2018-05-29T13:05:10.799Z,34.37
2018-05-29T13:06:32.626Z,34.53
2018-05-29T13:07:54.687Z,34.34
2018-05-29T13:09:16.513Z,34.28
2018-05-29T13:10:38.348Z,33.97
2018-05-29T13:11:59.896Z,33.91
2018-05-29T13:13:21.706Z,33.95
2018-05-29T13:14:43.831Z,34.05
2018-05-29T13:16:05.912Z,34.15
2018-05-29T13:17:28.002Z,34.31
2018-05-29T13:18:49.810Z,34.53
2018-05-29T13:20:11.890Z,34.52
2018-05-29T13:21:33.705Z,34.28
2018-05-29T13:22:55.507Z,33.94
2018-05-29T13:24:17.316Z,33.6
2018-05-29T13:25:38.868Z,33.56
2018-05-29T13:27:00.958Z,33.57
2018-05-29T13:28:22.882Z,33.78
2018-05-29T13:29:44.972Z,33.82
2018-05-29T13:31:07.041Z,33.86
2018-05-29T13:32:28.859Z,33.95
2018-05-29T13:33:51.028Z,33.87
2018-05-29T13:35:12.933Z,33.98
2018-05-29T13:36:35.103Z,34.09
2018-05-29T13:37:56.933Z,34.4
2018-05-29T13:39:19.052Z,34.5
2018-05-29T13:40:41.128Z,34.52
2018-05-29T13:42:02.965Z,34.47
2018-05-29T13:43:25.036Z,34.65
2018-05-29T13:44:46.849Z,34.8
2018-05-29T13:46:08.943Z,34.85
2018-05-29T13:47:30.748Z,34.49
2018-05-29T13:48:52.567Z,34.5
2018-05-29T13:50:14.619Z,34.3
2018-05-29T13:51:35.933Z,34.03
2018-05-29T13:52:58.022Z,33.72
2018-05-29T13:54:19.868Z,33.34
2018-05-29T13:55:41.748Z,33.16
2018-05-29T13:57:03.824Z,33.07
2018-05-29T13:58:25.887Z,32.99
2018-05-29T13:59:47.688Z,33.06
2018-05-29T14:01:09.506Z,33.41
2018-05-29T14:02:31.624Z,33.59
2018-05-29T14:03:53.725Z,33.61
2018-05-29T14:05:15.789Z,33.56
2018-05-29T14:06:37.586Z,33.56
2018-05-29T14:07:59.652Z,33.6
2018-05-29T14:09:21.734Z,33.38
2018-05-29T14:10:43.557Z,33.34
2018-05-29T14:12:05.372Z,33.29
2018-05-29T14:13:26.929Z,33.28
2018-05-29T14:14:48.789Z,33.41
2018-05-29T14:16:11.005Z,33.35
2018-05-29T14:17:32.826Z,33.23
2018-05-29T14:18:54.937Z,33.21
2018-05-29T14:20:16.551Z,33.32
2018-05-29T14:21:38.358Z,33.34
2018-05-29T14:23:00.171Z,33.12
2018-05-29T14:24:22.000Z,32.96
2018-05-29T14:25:44.093Z,32.74
2018-05-29T14:27:05.887Z,32.74
2018-05-29T14:28:27.976Z,32.75
2018-05-29T14:29:49.771Z,33
2018-05-29T14:31:11.595Z,33.19
2018-05-29T14:32:33.407Z,33.23
2018-05-29T14:33:55.472Z,33.38
2018-05-29T14:35:17.009Z,33.54
2018-05-29T14:36:39.116Z,33.65
2018-05-29T14:38:01.186Z,33.65
2018-05-29T14:39:23.257Z,33.76
2018-05-29T14:40:45.061Z,33.63
2018-05-29T14:42:07.129Z,33.35
2018-05-29T14:43:29.207Z,33.12
2018-05-29T14:44:51.324Z,32.87
2018-05-29T14:46:13.412Z,32.59
2018-05-29T14:47:35.239Z,32.52
2018-05-29T14:48:57.321Z,32.6
2018-05-29T14:50:19.397Z,32.41
2018-05-29T14:51:41.197Z,32.4
2018-05-29T14:53:03.023Z,32.3
2018-05-29T14:54:25.087Z,32.18
2018-05-29T14:55:46.896Z,32.19
2018-05-29T14:57:08.703Z,32.11
2018-05-29T14:58:30.788Z,32.07
2018-05-29T14:59:52.628Z,32.06
2018-05-29T15:01:14.694Z,32.01
2018-05-29T15:02:36.525Z,31.92
2018-05-29T15:03:58.596Z,31.88
2018-05-29T15:05:20.654Z,31.86
2018-05-29T15:06:42.740Z,31.86
2018-05-29T15:08:04.813Z,31.89
2018-05-29T15:09:26.885Z,31.91
2018-05-29T15:10:48.979Z,31.88
2018-05-29T15:12:10.799Z,31.88
2018-05-29T15:13:32.886Z,31.88
2018-05-29T15:14:54.717Z,32.22
2018-05-29T15:16:16.514Z,32.3
2018-05-29T15:17:38.603Z,32.5
2018-05-29T15:19:00.408Z,32.66
2018-05-29T15:20:22.209Z,32.6
2018-05-29T15:21:44.280Z,32.5
2018-05-29T15:23:06.133Z,32.57
2018-05-29T15:24:28.203Z,32.57
2018-05-29T15:25:50.111Z,32.57
2018-05-29T15:27:12.213Z,32.45
2018-05-29T15:28:34.058Z,32.4
2018-05-29T15:29:56.138Z,32.38
2018-05-29T15:31:17.974Z,32.33
2018-05-29T15:32:39.528Z,32.23
2018-05-29T15:34:01.351Z,32.21
2018-05-29T15:35:23.158Z,32.14
2018-05-29T15:36:45.238Z,32.18
2018-05-29T15:38:06.779Z,32.28
2018-05-29T15:39:28.328Z,32.29
2018-05-29T15:40:50.549Z,32.3
2018-05-29T15:42:12.715Z,32.37
2018-05-29T15:43:34.521Z,32.44
2018-05-29T15:44:56.629Z,32.55
2018-05-29T15:46:18.726Z,32.51
2018-05-29T15:47:40.806Z,32.47
2018-05-29T15:49:02.901Z,32.6
2018-05-29T15:50:24.736Z,32.67
2018-05-29T15:51:46.839Z,32.67
2018-05-29T15:53:08.959Z,32.75
2018-05-29T15:54:31.158Z,32.84
2018-05-29T15:55:53.258Z,32.89
2018-05-29T15:57:15.337Z,32.92
2018-05-29T15:58:37.442Z,32.96
2018-05-29T15:59:59.151Z,32.89
2018-05-29T16:01:21.237Z,33.01
2018-05-29T16:02:43.065Z,32.93
2018-05-29T16:04:05.129Z,32.92
2018-05-29T16:05:27.198Z,32.88
2018-05-29T16:06:49.276Z,32.82
2018-05-29T16:08:10.821Z,32.87
2018-05-29T16:09:32.645Z,32.69
2018-05-29T16:10:54.738Z,32.78
2018-05-29T16:12:16.803Z,32.72
2018-05-29T16:13:38.647Z,32.63
2018-05-29T16:15:00.739Z,32.67
2018-05-29T16:16:22.529Z,32.65
2018-05-29T16:17:44.626Z,32.66
2018-05-29T16:19:06.769Z,32.67
2018-05-29T16:20:28.879Z,32.69
2018-05-29T16:21:50.940Z,32.63
2018-05-29T16:23:12.756Z,32.43
2018-05-29T16:24:34.565Z,32.37
2018-05-29T16:25:56.648Z,32.26
2018-05-29T16:27:18.743Z,32.32
2018-05-29T16:28:40.291Z,32.23
2018-05-29T16:30:02.096Z,32.22
2018-05-29T16:31:24.209Z,32.18
2018-05-29T16:32:46.327Z,32.15
2018-05-29T16:34:08.151Z,32.18
2018-05-29T16:35:30.229Z,31.95
2018-05-29T16:36:52.302Z,31.88
2018-05-29T16:38:14.355Z,31.88
2018-05-29T16:39:36.479Z,31.73
2018-05-29T16:40:58.323Z,31.66
2018-05-29T16:42:20.417Z,31.48
2018-05-29T16:43:42.234Z,31.48
2018-05-29T16:45:04.058Z,31.41
2018-05-29T16:46:26.145Z,31.34
2018-05-29T16:47:47.978Z,31.35
2018-05-29T16:49:10.160Z,31.38
2018-05-29T16:50:31.981Z,31.35
2018-05-29T16:51:54.071Z,31.34
2018-05-29T16:53:16.165Z,31.31
2018-05-29T16:54:38.024Z,31.32
2018-05-29T16:55:59.617Z,31.38
2018-05-29T16:57:21.204Z,31.5
2018-05-29T16:58:43.044Z,31.43
2018-05-29T17:00:04.874Z,31.48
2018-05-29T17:01:26.713Z,31.47
2018-05-29T17:02:48.819Z,31.44
2018-05-29T17:04:10.649Z,31.43
2018-05-29T17:05:32.797Z,31.39
2018-05-29T17:06:54.906Z,31.32
2018-05-29T17:08:16.987Z,31.38
2018-05-29T17:09:39.081Z,31.35
2018-05-29T17:11:01.240Z,31.32
2018-05-29T17:12:23.114Z,31.35
2018-05-29T17:13:45.338Z,31.34
2018-05-29T17:15:07.333Z,31.26
2018-05-29T17:16:29.164Z,31.25
2018-05-29T17:17:51.341Z,31.17
2018-05-29T17:19:13.552Z,31.13
2018-05-29T17:20:35.805Z,31.14
2018-05-29T17:21:58.136Z,31.04
2018-05-29T17:23:20.065Z,31.09
2018-05-29T17:24:42.271Z,30.91
2018-05-29T17:26:04.270Z,30.84
2018-05-29T17:27:26.495Z,30.83
2018-05-29T17:28:48.508Z,30.73
2018-05-29T17:30:10.183Z,30.67
2018-05-29T17:31:32.156Z,30.7
2018-05-29T17:32:54.392Z,30.57
2018-05-29T17:34:16.360Z,30.61
2018-05-29T17:35:38.799Z,30.51
2018-05-29T17:37:01.098Z,30.43
2018-05-29T17:38:23.528Z,30.38